sensor_id;sensor_type;location;lat;lon;timestamp;temperature;humidity
76102;SHT30;64830;46.910;6.354;2023-03-01T00:00:40;-0.56;70.04
76102;SHT30;64830;46.910;6.354;2023-03-01T00:03:06;-0.57;70.26
76102;SHT30;64830;46.910;6.354;2023-03-01T00:05:31;-0.57;70.27
76102;SHT30;64830;46.910;6.354;2023-03-01T00:07:57;-0.58;70.30
76102;SHT30;64830;46.910;6.354;2023-03-01T00:10:22;-0.58;70.24
76102;SHT30;64830;46.910;6.354;2023-03-01T00:12:48;-0.57;70.30
76102;SHT30;64830;46.910;6.354;2023-03-01T00:15:13;-0.54;70.21
76102;SHT30;64830;46.910;6.354;2023-03-01T00:17:39;-0.54;70.21
76102;SHT30;64830;46.910;6.354;2023-03-01T00:20:04;-0.53;70.04
76102;SHT30;64830;46.910;6.354;2023-03-01T00:22:35;-0.54;70.54
76102;SHT30;64830;46.910;6.354;2023-03-01T00:25:01;-0.54;70.30
76102;SHT30;64830;46.910;6.354;2023-03-01T00:27:26;-0.53;70.05
76102;SHT30;64830;46.910;6.354;2023-03-01T00:29:52;-0.57;70.27
76102;SHT30;64830;46.910;6.354;2023-03-01T00:32:17;-0.64;70.89
76102;SHT30;64830;46.910;6.354;2023-03-01T00:34:42;-0.77;70.85
76102;SHT30;64830;46.910;6.354;2023-03-01T00:37:23;-0.84;70.90
76102;SHT30;64830;46.910;6.354;2023-03-01T00:39:49;-0.85;70.86
76102;SHT30;64830;46.910;6.354;2023-03-01T00:42:14;-0.89;71.27
76102;SHT30;64830;46.910;6.354;2023-03-01T00:44:40;-0.92;71.08
76102;SHT30;64830;46.910;6.354;2023-03-01T00:47:05;-0.89;71.06
76102;SHT30;64830;46.910;6.354;2023-03-01T00:49:31;-0.91;71.44
76102;SHT30;64830;46.910;6.354;2023-03-01T00:51:56;-0.92;71.20
76102;SHT30;64830;46.910;6.354;2023-03-01T00:54:22;-0.93;71.34
76102;SHT30;64830;46.910;6.354;2023-03-01T00:56:47;-0.93;71.44
76102;SHT30;64830;46.910;6.354;2023-03-01T00:59:12;-0.95;71.36
76102;SHT30;64830;46.910;6.354;2023-03-01T01:01:38;-0.91;71.33
76102;SHT30;64830;46.910;6.354;2023-03-01T01:04:06;-0.88;71.23
76102;SHT30;64830;46.910;6.354;2023-03-01T01:06:43;-0.86;71.17
76102;SHT30;64830;46.910;6.354;2023-03-01T01:09:11;-0.84;71.05
76102;SHT30;64830;46.910;6.354;2023-03-01T01:11:44;-0.81;70.99
76102;SHT30;64830;46.910;6.354;2023-03-01T01:14:09;-0.81;71.00
76102;SHT30;64830;46.910;6.354;2023-03-01T01:16:35;-0.81;70.90
76102;SHT30;64830;46.910;6.354;2023-03-01T01:19:00;-0.81;70.81
76102;SHT30;64830;46.910;6.354;2023-03-01T01:21:26;-0.77;70.94
76102;SHT30;64830;46.910;6.354;2023-03-01T01:23:52;-0.77;70.95
76102;SHT30;64830;46.910;6.354;2023-03-01T01:26:28;-0.78;70.93
76102;SHT30;64830;46.910;6.354;2023-03-01T01:28:54;-0.79;70.73
76102;SHT30;64830;46.910;6.354;2023-03-01T01:31:21;-0.79;70.85
76102;SHT30;64830;46.910;6.354;2023-03-01T01:33:48;-0.81;70.87
76102;SHT30;64830;46.910;6.354;2023-03-01T01:36:14;-0.79;70.92
76102;SHT30;64830;46.910;6.354;2023-03-01T01:38:39;-0.78;71.02
76102;SHT30;64830;46.910;6.354;2023-03-01T01:41:07;-0.78;71.02
76102;SHT30;64830;46.910;6.354;2023-03-01T01:43:36;-0.78;71.06
76102;SHT30;64830;46.910;6.354;2023-03-01T01:46:05;-0.85;71.59
76102;SHT30;64830;46.910;6.354;2023-03-01T01:48:40;-0.91;71.24
76102;SHT30;64830;46.910;6.354;2023-03-01T01:51:11;-0.99;71.38
76102;SHT30;64830;46.910;6.354;2023-03-01T01:53:38;-1.03;71.33
76102;SHT30;64830;46.910;6.354;2023-03-01T01:56:06;-1.07;71.38
76102;SHT30;64830;46.910;6.354;2023-03-01T01:58:32;-1.10;71.33
76102;SHT30;64830;46.910;6.354;2023-03-01T02:00:57;-1.09;71.48
76102;SHT30;64830;46.910;6.354;2023-03-01T02:03:29;-1.12;71.44
76102;SHT30;64830;46.910;6.354;2023-03-01T02:06:11;-1.13;71.22
76102;SHT30;64830;46.910;6.354;2023-03-01T02:08:38;-1.17;71.10
76102;SHT30;64830;46.910;6.354;2023-03-01T02:11:07;-1.17;71.00
76102;SHT30;64830;46.910;6.354;2023-03-01T02:13:33;-1.17;71.13
76102;SHT30;64830;46.910;6.354;2023-03-01T02:16:03;-1.19;71.19
76102;SHT30;64830;46.910;6.354;2023-03-01T02:18:28;-1.23;71.08
76102;SHT30;64830;46.910;6.354;2023-03-01T02:21:52;-1.26;71.85
76102;SHT30;64830;46.910;6.354;2023-03-01T02:23:53;-1.27;71.91
76102;SHT30;64830;46.910;6.354;2023-03-01T02:28:53;-1.26;71.76
76102;SHT30;64830;46.910;6.354;2023-03-01T02:31:19;-1.29;72.11
76102;SHT30;64830;46.910;6.354;2023-03-01T02:34:05;-1.27;72.11
76102;SHT30;64830;46.910;6.354;2023-03-01T02:36:36;-1.29;72.18
76102;SHT30;64830;46.910;6.354;2023-03-01T02:39:05;-1.30;72.08
76102;SHT30;64830;46.910;6.354;2023-03-01T02:41:35;-1.33;72.07
76102;SHT30;64830;46.910;6.354;2023-03-01T02:44:03;-1.33;71.97
76102;SHT30;64830;46.910;6.354;2023-03-01T02:46:28;-1.37;72.34
76102;SHT30;64830;46.910;6.354;2023-03-01T02:48:56;-1.43;72.38
76102;SHT30;64830;46.910;6.354;2023-03-01T02:51:34;-1.47;73.39
76102;SHT30;64830;46.910;6.354;2023-03-01T02:54:18;-1.59;73.54
76102;SHT30;64830;46.910;6.354;2023-03-01T02:56:47;-1.67;73.85
76102;SHT30;64830;46.910;6.354;2023-03-01T02:59:16;-1.75;74.24
76102;SHT30;64830;46.910;6.354;2023-03-01T03:01:43;-1.78;73.73
76102;SHT30;64830;46.910;6.354;2023-03-01T03:04:12;-1.78;73.59
76102;SHT30;64830;46.910;6.354;2023-03-01T03:06:43;-1.82;73.72
76102;SHT30;64830;46.910;6.354;2023-03-01T03:09:08;-1.83;74.80
76102;SHT30;64830;46.910;6.354;2023-03-01T03:11:33;-1.87;74.52
76102;SHT30;64830;46.910;6.354;2023-03-01T03:13:59;-1.93;74.44
76102;SHT30;64830;46.910;6.354;2023-03-01T03:16:24;-1.93;73.95
76102;SHT30;64830;46.910;6.354;2023-03-01T03:18:50;-1.97;75.18
76102;SHT30;64830;46.910;6.354;2023-03-01T03:21:16;-2.00;74.53
76102;SHT30;64830;46.910;6.354;2023-03-01T03:23:42;-2.03;74.62
76102;SHT30;64830;46.910;6.354;2023-03-01T03:26:07;-2.07;75.71
76102;SHT30;64830;46.910;6.354;2023-03-01T03:28:34;-2.10;75.44
76102;SHT30;64830;46.910;6.354;2023-03-01T03:31:00;-2.10;74.76
76102;SHT30;64830;46.910;6.354;2023-03-01T03:33:30;-2.13;74.42
76102;SHT30;64830;46.910;6.354;2023-03-01T03:35:55;-2.04;74.27
76102;SHT30;64830;46.910;6.354;2023-03-01T03:38:21;-2.03;74.26
76102;SHT30;64830;46.910;6.354;2023-03-01T03:40:54;-2.03;73.91
76102;SHT30;64830;46.910;6.354;2023-03-01T03:43:26;-2.02;73.72
76102;SHT30;64830;46.910;6.354;2023-03-01T03:45:52;-2.04;73.62
76102;SHT30;64830;46.910;6.354;2023-03-01T03:48:18;-2.02;73.33
76102;SHT30;64830;46.910;6.354;2023-03-01T03:50:48;-2.03;73.46
76102;SHT30;64830;46.910;6.354;2023-03-01T03:53:14;-2.02;73.14
76102;SHT30;64830;46.910;6.354;2023-03-01T03:55:40;-2.06;73.66
76102;SHT30;64830;46.910;6.354;2023-03-01T03:58:08;-2.06;73.79
76102;SHT30;64830;46.910;6.354;2023-03-01T04:00:40;-2.03;73.44
76102;SHT30;64830;46.910;6.354;2023-03-01T04:03:06;-2.04;73.19
76102;SHT30;64830;46.910;6.354;2023-03-01T04:05:32;-2.06;73.87
76102;SHT30;64830;46.910;6.354;2023-03-01T04:07:57;-2.04;73.81
76102;SHT30;64830;46.910;6.354;2023-03-01T04:10:30;-2.02;73.66
76102;SHT30;64830;46.910;6.354;2023-03-01T04:12:56;-2.02;73.45
76102;SHT30;64830;46.910;6.354;2023-03-01T04:15:23;-1.99;73.47
76102;SHT30;64830;46.910;6.354;2023-03-01T04:17:50;-2.04;73.62
76102;SHT30;64830;46.910;6.354;2023-03-01T04:20:20;-2.07;73.27
76102;SHT30;64830;46.910;6.354;2023-03-01T04:22:52;-2.04;73.38
76102;SHT30;64830;46.910;6.354;2023-03-01T04:25:18;-2.07;73.44
76102;SHT30;64830;46.910;6.354;2023-03-01T04:27:43;-2.02;73.50
76102;SHT30;64830;46.910;6.354;2023-03-01T04:30:09;-2.04;73.49
76102;SHT30;64830;46.910;6.354;2023-03-01T04:32:35;-2.04;72.91
76102;SHT30;64830;46.910;6.354;2023-03-01T04:35:00;-2.04;73.20
76102;SHT30;64830;46.910;6.354;2023-03-01T04:37:26;-2.09;73.37
76102;SHT30;64830;46.910;6.354;2023-03-01T04:39:52;-2.06;73.46
76102;SHT30;64830;46.910;6.354;2023-03-01T04:42:18;-2.09;72.97
76102;SHT30;64830;46.910;6.354;2023-03-01T04:44:45;-2.10;72.93
76102;SHT30;64830;46.910;6.354;2023-03-01T04:47:11;-2.10;73.08
76102;SHT30;64830;46.910;6.354;2023-03-01T04:49:37;-2.13;72.67
76102;SHT30;64830;46.910;6.354;2023-03-01T04:52:03;-2.14;73.01
76102;SHT30;64830;46.910;6.354;2023-03-01T04:54:31;-2.19;72.66
76102;SHT30;64830;46.910;6.354;2023-03-01T04:56:57;-2.20;72.78
76102;SHT30;64830;46.910;6.354;2023-03-01T04:59:22;-2.26;73.36
76102;SHT30;64830;46.910;6.354;2023-03-01T05:01:51;-2.27;73.24
76102;SHT30;64830;46.910;6.354;2023-03-01T05:04:17;-2.27;73.63
76102;SHT30;64830;46.910;6.354;2023-03-01T05:06:43;-2.36;73.99
76102;SHT30;64830;46.910;6.354;2023-03-01T05:09:10;-2.34;73.57
76102;SHT30;64830;46.910;6.354;2023-03-01T05:11:36;-2.37;73.77
76102;SHT30;64830;46.910;6.354;2023-03-01T05:14:04;-2.36;73.54
76102;SHT30;64830;46.910;6.354;2023-03-01T05:16:30;-2.38;73.57
76102;SHT30;64830;46.910;6.354;2023-03-01T05:18:57;-2.38;73.49
76102;SHT30;64830;46.910;6.354;2023-03-01T05:21:23;-2.40;73.51
76102;SHT30;64830;46.910;6.354;2023-03-01T05:23:48;-2.42;73.61
76102;SHT30;64830;46.910;6.354;2023-03-01T05:26:15;-2.41;73.76
76102;SHT30;64830;46.910;6.354;2023-03-01T05:28:40;-2.40;73.57
76102;SHT30;64830;46.910;6.354;2023-03-01T05:31:06;-2.42;74.51
76102;SHT30;64830;46.910;6.354;2023-03-01T05:33:40;-2.49;74.35
76102;SHT30;64830;46.910;6.354;2023-03-01T05:36:07;-2.48;74.03
76102;SHT30;64830;46.910;6.354;2023-03-01T05:38:35;-2.47;74.11
76102;SHT30;64830;46.910;6.354;2023-03-01T05:41:00;-2.47;73.69
76102;SHT30;64830;46.910;6.354;2023-03-01T05:43:25;-2.51;73.92
76102;SHT30;64830;46.910;6.354;2023-03-01T05:45:51;-2.52;74.27
76102;SHT30;64830;46.910;6.354;2023-03-01T05:48:16;-2.52;74.38
76102;SHT30;64830;46.910;6.354;2023-03-01T05:50:45;-2.54;74.68
76102;SHT30;64830;46.910;6.354;2023-03-01T05:53:14;-2.62;75.18
76102;SHT30;64830;46.910;6.354;2023-03-01T05:55:40;-2.66;75.03
76102;SHT30;64830;46.910;6.354;2023-03-01T05:58:17;-2.69;74.70
76102;SHT30;64830;46.910;6.354;2023-03-01T06:00:45;-2.70;75.04
76102;SHT30;64830;46.910;6.354;2023-03-01T06:03:12;-2.69;74.77
76102;SHT30;64830;46.910;6.354;2023-03-01T06:05:39;-2.68;74.79
76102;SHT30;64830;46.910;6.354;2023-03-01T06:08:05;-2.68;74.87
76102;SHT30;64830;46.910;6.354;2023-03-01T06:10:30;-2.69;74.99
76102;SHT30;64830;46.910;6.354;2023-03-01T06:12:56;-2.70;75.42
76102;SHT30;64830;46.910;6.354;2023-03-01T06:15:22;-2.64;77.32
76102;SHT30;64830;46.910;6.354;2023-03-01T06:17:48;-2.55;77.36
76102;SHT30;64830;46.910;6.354;2023-03-01T06:20:21;-2.42;76.99
76102;SHT30;64830;46.910;6.354;2023-03-01T06:22:47;-2.31;76.57
76102;SHT30;64830;46.910;6.354;2023-03-01T06:25:18;-2.26;76.69
76102;SHT30;64830;46.910;6.354;2023-03-01T06:27:44;-2.17;76.64
76102;SHT30;64830;46.910;6.354;2023-03-01T06:30:12;-2.09;76.57
76102;SHT30;64830;46.910;6.354;2023-03-01T06:32:39;-2.03;75.49
76102;SHT30;64830;46.910;6.354;2023-03-01T06:35:09;-2.00;74.82
76102;SHT30;64830;46.910;6.354;2023-03-01T06:37:35;-2.02;74.50
76102;SHT30;64830;46.910;6.354;2023-03-01T06:40:02;-2.03;74.41
76102;SHT30;64830;46.910;6.354;2023-03-01T06:42:34;-2.04;74.47
76102;SHT30;64830;46.910;6.354;2023-03-01T06:44:59;-2.06;74.86
76102;SHT30;64830;46.910;6.354;2023-03-01T06:47:25;-2.07;75.41
76102;SHT30;64830;46.910;6.354;2023-03-01T06:49:50;-2.04;74.97
76102;SHT30;64830;46.910;6.354;2023-03-01T06:52:15;-2.03;74.55
76102;SHT30;64830;46.910;6.354;2023-03-01T06:54:41;-2.07;74.88
76102;SHT30;64830;46.910;6.354;2023-03-01T06:57:06;-2.13;74.82
76102;SHT30;64830;46.910;6.354;2023-03-01T06:59:32;-2.11;75.08
76102;SHT30;64830;46.910;6.354;2023-03-01T07:01:57;-2.04;75.28
76102;SHT30;64830;46.910;6.354;2023-03-01T07:04:22;-1.99;75.40
76102;SHT30;64830;46.910;6.354;2023-03-01T07:06:48;-1.92;75.11
76102;SHT30;64830;46.910;6.354;2023-03-01T07:09:21;-1.79;76.17
76102;SHT30;64830;46.910;6.354;2023-03-01T07:11:47;-1.62;75.63
76102;SHT30;64830;46.910;6.354;2023-03-01T07:14:13;-1.52;74.93
76102;SHT30;64830;46.910;6.354;2023-03-01T07:16:38;-1.46;74.71
76102;SHT30;64830;46.910;6.354;2023-03-01T07:19:03;-1.40;74.49
76102;SHT30;64830;46.910;6.354;2023-03-01T07:21:30;-1.39;74.38
76102;SHT30;64830;46.910;6.354;2023-03-01T07:23:55;-1.47;74.76
76102;SHT30;64830;46.910;6.354;2023-03-01T07:26:21;-1.48;74.58
76102;SHT30;64830;46.910;6.354;2023-03-01T07:28:46;-1.50;74.41
76102;SHT30;64830;46.910;6.354;2023-03-01T07:31:12;-1.50;74.47
76102;SHT30;64830;46.910;6.354;2023-03-01T07:33:37;-1.51;74.44
76102;SHT30;64830;46.910;6.354;2023-03-01T07:36:03;-1.47;74.41
76102;SHT30;64830;46.910;6.354;2023-03-01T07:38:29;-1.41;74.21
76102;SHT30;64830;46.910;6.354;2023-03-01T07:41:02;-1.39;74.14
76102;SHT30;64830;46.910;6.354;2023-03-01T07:43:29;-1.40;74.08
76102;SHT30;64830;46.910;6.354;2023-03-01T07:45:58;-1.37;74.11
76102;SHT30;64830;46.910;6.354;2023-03-01T07:48:24;-1.30;74.15
76102;SHT30;64830;46.910;6.354;2023-03-01T07:50:49;-1.27;73.94
76102;SHT30;64830;46.910;6.354;2023-03-01T07:53:15;-1.24;73.84
76102;SHT30;64830;46.910;6.354;2023-03-01T07:55:40;-1.27;74.19
76102;SHT30;64830;46.910;6.354;2023-03-01T07:58:05;-1.34;74.69
76102;SHT30;64830;46.910;6.354;2023-03-01T08:00:31;-1.30;74.51
76102;SHT30;64830;46.910;6.354;2023-03-01T08:02:59;-1.23;74.55
76102;SHT30;64830;46.910;6.354;2023-03-01T08:05:26;-1.16;74.43
76102;SHT30;64830;46.910;6.354;2023-03-01T08:07:51;-1.10;74.31
76102;SHT30;64830;46.910;6.354;2023-03-01T08:10:17;-1.05;74.31
76102;SHT30;64830;46.910;6.354;2023-03-01T08:12:42;-0.92;74.17
76102;SHT30;64830;46.910;6.354;2023-03-01T08:15:08;-0.84;74.05
76102;SHT30;64830;46.910;6.354;2023-03-01T08:17:34;-0.69;73.95
76102;SHT30;64830;46.910;6.354;2023-03-01T08:19:59;-0.61;73.68
76102;SHT30;64830;46.910;6.354;2023-03-01T08:22:24;-0.53;73.57
76102;SHT30;64830;46.910;6.354;2023-03-01T08:24:50;-0.47;73.36
76102;SHT30;64830;46.910;6.354;2023-03-01T08:27:16;-0.40;73.49
76102;SHT30;64830;46.910;6.354;2023-03-01T08:29:42;-0.34;73.19
76102;SHT30;64830;46.910;6.354;2023-03-01T08:32:07;-0.29;73.31
76102;SHT30;64830;46.910;6.354;2023-03-01T08:34:33;-0.22;73.27
76102;SHT30;64830;46.910;6.354;2023-03-01T08:37:00;-0.13;73.33
76102;SHT30;64830;46.910;6.354;2023-03-01T08:39:26;-0.06;73.48
76102;SHT30;64830;46.910;6.354;2023-03-01T08:41:52;-0.02;73.18
76102;SHT30;64830;46.910;6.354;2023-03-01T08:44:17;0.06;72.92
76102;SHT30;64830;46.910;6.354;2023-03-01T08:46:43;0.15;72.92
76102;SHT30;64830;46.910;6.354;2023-03-01T08:49:15;0.21;73.02
76102;SHT30;64830;46.910;6.354;2023-03-01T08:51:42;0.25;72.90
76102;SHT30;64830;46.910;6.354;2023-03-01T08:54:11;0.33;72.70
76102;SHT30;64830;46.910;6.354;2023-03-01T08:56:37;0.38;72.83
76102;SHT30;64830;46.910;6.354;2023-03-01T08:59:03;0.42;72.51
76102;SHT30;64830;46.910;6.354;2023-03-01T09:01:29;0.50;72.46
76102;SHT30;64830;46.910;6.354;2023-03-01T09:03:54;0.53;72.62
76102;SHT30;64830;46.910;6.354;2023-03-01T09:06:20;0.57;72.25
76102;SHT30;64830;46.910;6.354;2023-03-01T09:08:48;0.63;72.13
76102;SHT30;64830;46.910;6.354;2023-03-01T09:11:17;0.67;72.26
76102;SHT30;64830;46.910;6.354;2023-03-01T09:13:44;0.70;71.89
76102;SHT30;64830;46.910;6.354;2023-03-01T09:16:11;0.71;72.23
76102;SHT30;64830;46.910;6.354;2023-03-01T09:18:37;0.70;71.78
76102;SHT30;64830;46.910;6.354;2023-03-01T09:21:09;0.77;71.87
76102;SHT30;64830;46.910;6.354;2023-03-01T09:23:35;0.77;71.95
76102;SHT30;64830;46.910;6.354;2023-03-01T09:26:08;0.83;72.43
76102;SHT30;64830;46.910;6.354;2023-03-01T09:28:34;0.87;72.10
76102;SHT30;64830;46.910;6.354;2023-03-01T09:31:01;0.96;71.71
76102;SHT30;64830;46.910;6.354;2023-03-01T09:33:29;0.99;71.65
76102;SHT30;64830;46.910;6.354;2023-03-01T09:35:58;1.05;71.42
76102;SHT30;64830;46.910;6.354;2023-03-01T09:38:24;1.12;71.90
76102;SHT30;64830;46.910;6.354;2023-03-01T09:40:50;1.20;71.33
76102;SHT30;64830;46.910;6.354;2023-03-01T09:43:23;1.30;71.42
76102;SHT30;64830;46.910;6.354;2023-03-01T09:45:53;1.37;71.16
76102;SHT30;64830;46.910;6.354;2023-03-01T09:48:23;1.48;70.94
76102;SHT30;64830;46.910;6.354;2023-03-01T09:50:51;1.56;70.62
76102;SHT30;64830;46.910;6.354;2023-03-01T09:53:20;1.61;70.26
76102;SHT30;64830;46.910;6.354;2023-03-01T09:56:00;1.67;70.13
76102;SHT30;64830;46.910;6.354;2023-03-01T10:02:01;1.81;70.01
76102;SHT30;64830;46.910;6.354;2023-03-01T10:04:47;1.79;69.71
76102;SHT30;64830;46.910;6.354;2023-03-01T10:07:45;1.81;69.59
76102;SHT30;64830;46.910;6.354;2023-03-01T10:10:27;1.84;69.88
76102;SHT30;64830;46.910;6.354;2023-03-01T10:12:53;1.85;69.62
76102;SHT30;64830;46.910;6.354;2023-03-01T10:15:28;1.89;69.55
76102;SHT30;64830;46.910;6.354;2023-03-01T10:17:58;1.86;69.15
76102;SHT30;64830;46.910;6.354;2023-03-01T10:20:31;1.84;69.55
76102;SHT30;64830;46.910;6.354;2023-03-01T10:22:59;1.84;69.62
76102;SHT30;64830;46.910;6.354;2023-03-01T10:28:38;1.81;68.65
76102;SHT30;64830;46.910;6.354;2023-03-01T10:31:05;1.78;69.51
76102;SHT30;64830;46.910;6.354;2023-03-01T10:33:37;1.85;69.55
76102;SHT30;64830;46.910;6.354;2023-03-01T10:36:05;1.84;68.97
76102;SHT30;64830;46.910;6.354;2023-03-01T10:38:47;1.81;69.08
76102;SHT30;64830;46.910;6.354;2023-03-01T10:41:13;1.77;69.51
76102;SHT30;64830;46.910;6.354;2023-03-01T10:43:51;1.79;69.43
76102;SHT30;64830;46.910;6.354;2023-03-01T10:46:32;1.78;69.28
76102;SHT30;64830;46.910;6.354;2023-03-01T10:49:13;1.77;69.55
76102;SHT30;64830;46.910;6.354;2023-03-01T10:51:41;1.81;69.21
76102;SHT30;64830;46.910;6.354;2023-03-01T10:56:59;1.92;69.47
76102;SHT30;64830;46.910;6.354;2023-03-01T10:59:29;1.99;69.10
76102;SHT30;64830;46.910;6.354;2023-03-01T11:02:17;2.08;68.94
76102;SHT30;64830;46.910;6.354;2023-03-01T11:05:00;2.12;69.06
76102;SHT30;64830;46.910;6.354;2023-03-01T11:07:26;2.10;69.03
76102;SHT30;64830;46.910;6.354;2023-03-01T11:09:52;2.13;68.82
76102;SHT30;64830;46.910;6.354;2023-03-01T11:12:18;2.12;68.78
76102;SHT30;64830;46.910;6.354;2023-03-01T11:14:51;2.13;68.99
76102;SHT30;64830;46.910;6.354;2023-03-01T11:17:23;2.13;68.84
76102;SHT30;64830;46.910;6.354;2023-03-01T11:22:35;2.16;68.87
76102;SHT30;64830;46.910;6.354;2023-03-01T11:25:01;2.22;68.99
76102;SHT30;64830;46.910;6.354;2023-03-01T11:27:38;2.19;68.39
76102;SHT30;64830;46.910;6.354;2023-03-01T11:30:21;2.15;68.52
76102;SHT30;64830;46.910;6.354;2023-03-01T11:38:53;2.18;68.67
76102;SHT30;64830;46.910;6.354;2023-03-01T11:41:26;2.15;68.58
76102;SHT30;64830;46.910;6.354;2023-03-01T11:44:02;2.12;68.52
76102;SHT30;64830;46.910;6.354;2023-03-01T11:49:30;2.08;68.46
76102;SHT30;64830;46.910;6.354;2023-03-01T11:55:11;2.08;68.56
76102;SHT30;64830;46.910;6.354;2023-03-01T12:03:25;2.10;68.98
76102;SHT30;64830;46.910;6.354;2023-03-01T12:11:32;2.25;68.55
76102;SHT30;64830;46.910;6.354;2023-03-01T12:14:15;2.26;68.14
76102;SHT30;64830;46.910;6.354;2023-03-01T12:50:51;2.13;68.02
76102;SHT30;64830;46.910;6.354;2023-03-01T12:53:26;2.09;68.25
76102;SHT30;64830;46.910;6.354;2023-03-01T12:56:10;2.10;68.47
76102;SHT30;64830;46.910;6.354;2023-03-01T12:58:50;2.12;68.39
76102;SHT30;64830;46.910;6.354;2023-03-01T13:01:45;2.09;68.46
76102;SHT30;64830;46.910;6.354;2023-03-01T13:11:49;2.22;68.45
76102;SHT30;64830;46.910;6.354;2023-03-01T13:16:49;2.27;68.39
76102;SHT30;64830;46.910;6.354;2023-03-01T13:21:44;2.26;68.02
76102;SHT30;64830;46.910;6.354;2023-03-01T13:24:32;2.26;68.09
76102;SHT30;64830;46.910;6.354;2023-03-01T13:32:25;2.32;67.97
76102;SHT30;64830;46.910;6.354;2023-03-01T13:37:36;2.36;68.03
76102;SHT30;64830;46.910;6.354;2023-03-01T13:42:58;2.38;67.63
76102;SHT30;64830;46.910;6.354;2023-03-01T13:45:42;2.44;67.69
76102;SHT30;64830;46.910;6.354;2023-03-01T13:48:23;2.46;67.43
76102;SHT30;64830;46.910;6.354;2023-03-01T13:51:04;2.41;67.83
76102;SHT30;64830;46.910;6.354;2023-03-01T13:53:36;2.44;67.89
76102;SHT30;64830;46.910;6.354;2023-03-01T13:56:11;2.47;67.68
76102;SHT30;64830;46.910;6.354;2023-03-01T13:58:58;2.47;67.65
76102;SHT30;64830;46.910;6.354;2023-03-01T14:01:33;2.47;67.58
76102;SHT30;64830;46.910;6.354;2023-03-01T14:04:00;2.48;67.58
76102;SHT30;64830;46.910;6.354;2023-03-01T14:06:31;2.47;67.60
76102;SHT30;64830;46.910;6.354;2023-03-01T14:09:16;2.47;67.62
76102;SHT30;64830;46.910;6.354;2023-03-01T14:19:58;2.43;67.63
76102;SHT30;64830;46.910;6.354;2023-03-01T14:22:27;2.37;67.68
76102;SHT30;64830;46.910;6.354;2023-03-01T14:24:58;2.34;67.89
76102;SHT30;64830;46.910;6.354;2023-03-01T14:27:28;2.33;67.93
76102;SHT30;64830;46.910;6.354;2023-03-01T14:30:00;2.33;67.79
76102;SHT30;64830;46.910;6.354;2023-03-01T14:32:28;2.34;67.90
76102;SHT30;64830;46.910;6.354;2023-03-01T14:34:54;2.29;67.76
76102;SHT30;64830;46.910;6.354;2023-03-01T14:37:24;2.20;67.99
76102;SHT30;64830;46.910;6.354;2023-03-01T14:39:50;2.18;68.08
76102;SHT30;64830;46.910;6.354;2023-03-01T14:42:17;2.12;68.32
76102;SHT30;64830;46.910;6.354;2023-03-01T14:44:46;2.15;68.24
76102;SHT30;64830;46.910;6.354;2023-03-01T14:47:15;2.18;68.45
76102;SHT30;64830;46.910;6.354;2023-03-01T14:49:43;2.16;68.56
76102;SHT30;64830;46.910;6.354;2023-03-01T14:52:25;2.16;68.34
76102;SHT30;64830;46.910;6.354;2023-03-01T14:54:54;2.10;68.25
76102;SHT30;64830;46.910;6.354;2023-03-01T14:57:23;2.09;68.35
76102;SHT30;64830;46.910;6.354;2023-03-01T14:59:54;2.13;68.40
76102;SHT30;64830;46.910;6.354;2023-03-01T15:02:24;2.12;68.20
76102;SHT30;64830;46.910;6.354;2023-03-01T15:04:58;2.10;68.21
76102;SHT30;64830;46.910;6.354;2023-03-01T15:07:32;2.08;68.58
76102;SHT30;64830;46.910;6.354;2023-03-01T15:09:59;2.06;68.48
76102;SHT30;64830;46.910;6.354;2023-03-01T15:12:34;2.06;68.56
76102;SHT30;64830;46.910;6.354;2023-03-01T15:15:00;2.02;68.60
76102;SHT30;64830;46.910;6.354;2023-03-01T15:17:35;2.01;68.70
76102;SHT30;64830;46.910;6.354;2023-03-01T15:20:06;1.98;68.93
76102;SHT30;64830;46.910;6.354;2023-03-01T15:22:32;1.99;69.09
76102;SHT30;64830;46.910;6.354;2023-03-01T15:24:58;1.97;68.73
76102;SHT30;64830;46.910;6.354;2023-03-01T15:27:25;1.92;68.81
76102;SHT30;64830;46.910;6.354;2023-03-01T15:30:00;1.91;68.89
76102;SHT30;64830;46.910;6.354;2023-03-01T15:32:35;1.86;68.87
76102;SHT30;64830;46.910;6.354;2023-03-01T15:43:51;1.70;69.27
76102;SHT30;64830;46.910;6.354;2023-03-01T15:46:32;1.70;69.21
76102;SHT30;64830;46.910;6.354;2023-03-01T15:49:18;1.65;69.50
76102;SHT30;64830;46.910;6.354;2023-03-01T15:51:51;1.61;69.50
76102;SHT30;64830;46.910;6.354;2023-03-01T15:54:21;1.60;69.38
76102;SHT30;64830;46.910;6.354;2023-03-01T15:56:47;1.63;69.50
76102;SHT30;64830;46.910;6.354;2023-03-01T15:59:13;1.61;69.38
76102;SHT30;64830;46.910;6.354;2023-03-01T16:01:40;1.56;69.25
76102;SHT30;64830;46.910;6.354;2023-03-01T16:04:05;1.51;69.40
76102;SHT30;64830;46.910;6.354;2023-03-01T16:06:31;1.47;69.72
76102;SHT30;64830;46.910;6.354;2023-03-01T16:08:56;1.46;69.86
76102;SHT30;64830;46.910;6.354;2023-03-01T16:11:21;1.44;69.81
76102;SHT30;64830;46.910;6.354;2023-03-01T16:13:47;1.44;69.57
76102;SHT30;64830;46.910;6.354;2023-03-01T16:16:14;1.44;69.73
76102;SHT30;64830;46.910;6.354;2023-03-01T16:18:44;1.44;69.97
76102;SHT30;64830;46.910;6.354;2023-03-01T16:21:13;1.43;69.73
76102;SHT30;64830;46.910;6.354;2023-03-01T16:23:39;1.43;69.64
76102;SHT30;64830;46.910;6.354;2023-03-01T16:26:04;1.39;69.67
76102;SHT30;64830;46.910;6.354;2023-03-01T16:28:29;1.36;69.71
76102;SHT30;64830;46.910;6.354;2023-03-01T16:30:55;1.36;69.69
76102;SHT30;64830;46.910;6.354;2023-03-01T16:33:20;1.35;69.89
76102;SHT30;64830;46.910;6.354;2023-03-01T16:35:46;1.30;69.78
76102;SHT30;64830;46.910;6.354;2023-03-01T16:38:11;1.29;69.90
76102;SHT30;64830;46.910;6.354;2023-03-01T16:40:36;1.30;69.95
76102;SHT30;64830;46.910;6.354;2023-03-01T16:43:02;1.30;70.02
76102;SHT30;64830;46.910;6.354;2023-03-01T16:45:33;1.33;69.78
76102;SHT30;64830;46.910;6.354;2023-03-01T16:48:00;1.30;69.97
76102;SHT30;64830;46.910;6.354;2023-03-01T16:50:26;1.29;69.91
76102;SHT30;64830;46.910;6.354;2023-03-01T16:52:51;1.29;70.03
76102;SHT30;64830;46.910;6.354;2023-03-01T16:55:17;1.26;70.04
76102;SHT30;64830;46.910;6.354;2023-03-01T16:57:43;1.28;70.05
76102;SHT30;64830;46.910;6.354;2023-03-01T17:00:10;1.29;70.05
76102;SHT30;64830;46.910;6.354;2023-03-01T17:02:36;1.29;69.90
76102;SHT30;64830;46.910;6.354;2023-03-01T17:05:02;1.29;69.83
76102;SHT30;64830;46.910;6.354;2023-03-01T17:07:33;1.25;69.86
76102;SHT30;64830;46.910;6.354;2023-03-01T17:10:00;1.26;70.09
76102;SHT30;64830;46.910;6.354;2023-03-01T17:12:26;1.25;70.03
76102;SHT30;64830;46.910;6.354;2023-03-01T17:14:51;1.19;70.02
76102;SHT30;64830;46.910;6.354;2023-03-01T17:17:16;1.19;70.12
76102;SHT30;64830;46.910;6.354;2023-03-01T17:19:42;1.16;70.05
76102;SHT30;64830;46.910;6.354;2023-03-01T17:22:10;1.16;70.18
76102;SHT30;64830;46.910;6.354;2023-03-01T17:24:37;1.16;70.22
76102;SHT30;64830;46.910;6.354;2023-03-01T17:27:03;1.18;70.18
76102;SHT30;64830;46.910;6.354;2023-03-01T17:29:29;1.15;70.23
76102;SHT30;64830;46.910;6.354;2023-03-01T17:31:55;1.11;70.27
76102;SHT30;64830;46.910;6.354;2023-03-01T17:34:21;1.09;70.34
76102;SHT30;64830;46.910;6.354;2023-03-01T17:36:47;1.08;70.42
76102;SHT30;64830;46.910;6.354;2023-03-01T17:39:15;1.09;70.41